sensor_id;sensor_type;location;lat;lon;timestamp;pressure;altitude;pressure_sealevel;temperature;humidity
51524;BME280;37610;51.790;21.590;2022-12-07T00:02:07;99369.63;;;1.85;87.10
51524;BME280;37610;51.790;21.590;2022-12-07T00:06:11;99366.61;;;1.84;86.88
51524;BME280;37610;51.790;21.590;2022-12-07T00:10:13;99366.52;;;1.83;86.71
51524;BME280;37610;51.790;21.590;2022-12-07T00:14:15;99366.70;;;1.83;86.87
51524;BME280;37610;51.790;21.590;2022-12-07T00:18:17;99369.63;;;1.85;86.87
51524;BME280;37610;51.790;21.590;2022-12-07T00:22:18;99368.52;;;1.87;86.96
51524;BME280;37610;51.790;21.590;2022-12-07T00:26:23;99377.88;;;1.89;87.00
51524;BME280;37610;51.790;21.590;2022-12-07T00:30:25;99377.52;;;1.90;86.67
51524;BME280;37610;51.790;21.590;2022-12-07T00:34:26;99376.66;;;1.91;87.03
51524;BME280;37610;51.790;21.590;2022-12-07T00:38:30;99374.66;;;1.92;87.05
51524;BME280;37610;51.790;21.590;2022-12-07T00:42:32;99370.85;;;1.94;86.89
51524;BME280;37610;51.790;21.590;2022-12-07T00:46:34;99368.54;;;1.94;86.97
51524;BME280;37610;51.790;21.590;2022-12-07T00:50:35;99370.02;;;1.93;87.06
51524;BME280;37610;51.790;21.590;2022-12-07T00:54:37;99365.42;;;1.93;87.07
51524;BME280;37610;51.790;21.590;2022-12-07T00:58:38;99361.98;;;1.89;87.05
51524;BME280;37610;51.790;21.590;2022-12-07T01:02:40;99359.95;;;1.87;87.07
51524;BME280;37610;51.790;21.590;2022-12-07T01:06:41;99356.30;;;1.87;87.11
51524;BME280;37610;51.790;21.590;2022-12-07T01:10:43;99354.02;;;1.87;87.26
51524;BME280;37610;51.790;21.590;2022-12-07T01:14:44;99351.60;;;1.86;87.08
51524;BME280;37610;51.790;21.590;2022-12-07T01:18:48;99350.80;;;1.85;87.11
51524;BME280;37610;51.790;21.590;2022-12-07T01:22:50;99349.55;;;1.84;87.37
51524;BME280;37610;51.790;21.590;2022-12-07T01:26:51;99351.33;;;1.82;87.50
51524;BME280;37610;51.790;21.590;2022-12-07T01:31:01;99347.83;;;1.81;87.25
51524;BME280;37610;51.790;21.590;2022-12-07T01:35:03;99346.00;;;1.80;87.51
51524;BME280;37610;51.790;21.590;2022-12-07T01:39:06;99348.90;;;1.79;87.27
51524;BME280;37610;51.790;21.590;2022-12-07T01:43:18;99348.48;;;1.77;87.41
51524;BME280;37610;51.790;21.590;2022-12-07T01:47:20;99346.13;;;1.76;87.62
51524;BME280;37610;51.790;21.590;2022-12-07T01:51:22;99344.67;;;1.74;87.49
51524;BME280;37610;51.790;21.590;2022-12-07T01:55:23;99341.63;;;1.71;87.44
51524;BME280;37610;51.790;21.590;2022-12-07T01:59:25;99344.63;;;1.70;87.63
51524;BME280;37610;51.790;21.590;2022-12-07T02:03:32;99340.01;;;1.64;87.86
51524;BME280;37610;51.790;21.590;2022-12-07T02:07:38;99342.62;;;1.61;87.72
51524;BME280;37610;51.790;21.590;2022-12-07T02:11:40;99341.17;;;1.57;87.78
51524;BME280;37610;51.790;21.590;2022-12-07T02:20:20;99337.09;;;1.48;87.71
51524;BME280;37610;51.790;21.590;2022-12-07T02:24:35;99335.71;;;1.44;87.92
51524;BME280;37610;51.790;21.590;2022-12-07T02:33:09;99338.77;;;1.36;87.89
51524;BME280;37610;51.790;21.590;2022-12-07T02:37:25;99338.85;;;1.34;88.04
51524;BME280;37610;51.790;21.590;2022-12-07T02:41:40;99334.02;;;1.33;87.69
51524;BME280;37610;51.790;21.590;2022-12-07T02:45:45;99333.42;;;1.28;87.83
51524;BME280;37610;51.790;21.590;2022-12-07T02:49:49;99332.02;;;1.22;88.00
51524;BME280;37610;51.790;21.590;2022-12-07T02:53:51;99330.09;;;1.19;87.89
51524;BME280;37610;51.790;21.590;2022-12-07T02:58:13;99327.25;;;1.16;87.87
51524;BME280;37610;51.790;21.590;2022-12-07T03:06:53;99325.75;;;1.09;88.02
51524;BME280;37610;51.790;21.590;2022-12-07T03:10:58;99321.01;;;1.06;88.31
51524;BME280;37610;51.790;21.590;2022-12-07T03:15:35;99316.38;;;1.01;88.68
51524;BME280;37610;51.790;21.590;2022-12-07T03:19:42;99308.20;;;0.96;88.56
51524;BME280;37610;51.790;21.590;2022-12-07T03:23:51;99307.94;;;0.95;88.58
51524;BME280;37610;51.790;21.590;2022-12-07T03:27:57;99307.84;;;0.95;88.81
51524;BME280;37610;51.790;21.590;2022-12-07T03:32:09;99305.23;;;0.93;88.82
51524;BME280;37610;51.790;21.590;2022-12-07T03:36:21;99300.16;;;0.89;89.20
51524;BME280;37610;51.790;21.590;2022-12-07T03:40:40;99297.55;;;0.88;89.20
51524;BME280;37610;51.790;21.590;2022-12-07T03:44:47;99291.71;;;0.89;89.14
51524;BME280;37610;51.790;21.590;2022-12-07T03:48:57;99293.70;;;0.90;89.15
51524;BME280;37610;51.790;21.590;2022-12-07T03:53:24;99296.01;;;0.91;88.95
51524;BME280;37610;51.790;21.590;2022-12-07T03:57:32;99293.29;;;0.91;89.19
51524;BME280;37610;51.790;21.590;2022-12-07T04:01:34;99293.33;;;0.91;89.24
51524;BME280;37610;51.790;21.590;2022-12-07T04:05:36;99292.11;;;0.93;89.25
51524;BME280;37610;51.790;21.590;2022-12-07T04:09:39;99290.77;;;0.94;89.02
51524;BME280;37610;51.790;21.590;2022-12-07T04:13:40;99286.38;;;0.93;89.12
51524;BME280;37610;51.790;21.590;2022-12-07T04:18:00;99285.27;;;0.94;89.01
51524;BME280;37610;51.790;21.590;2022-12-07T04:22:03;99284.30;;;0.93;89.13
51524;BME280;37610;51.790;21.590;2022-12-07T04:26:05;99283.14;;;0.91;89.25
51524;BME280;37610;51.790;21.590;2022-12-07T04:30:08;99282.84;;;0.91;89.07
51524;BME280;37610;51.790;21.590;2022-12-07T04:34:10;99279.34;;;0.91;89.33
51524;BME280;37610;51.790;21.590;2022-12-07T04:38:12;99274.05;;;0.89;89.60
51524;BME280;37610;51.790;21.590;2022-12-07T04:42:13;99269.20;;;0.89;89.60
51524;BME280;37610;51.790;21.590;2022-12-07T04:46:15;99273.46;;;0.89;89.60
51524;BME280;37610;51.790;21.590;2022-12-07T04:50:16;99275.48;;;0.90;89.76
51524;BME280;37610;51.790;21.590;2022-12-07T04:54:18;99276.02;;;0.91;89.62
51524;BME280;37610;51.790;21.590;2022-12-07T04:58:20;99276.61;;;0.92;89.34
51524;BME280;37610;51.790;21.590;2022-12-07T05:02:22;99266.69;;;0.92;89.53
51524;BME280;37610;51.790;21.590;2022-12-07T05:06:23;99268.05;;;0.91;89.63
51524;BME280;37610;51.790;21.590;2022-12-07T05:10:25;99268.81;;;0.91;89.44
51524;BME280;37610;51.790;21.590;2022-12-07T05:14:26;99265.30;;;0.91;89.64
51524;BME280;37610;51.790;21.590;2022-12-07T05:18:28;99263.36;;;0.90;89.54
51524;BME280;37610;51.790;21.590;2022-12-07T05:22:30;99261.34;;;0.89;89.64
51524;BME280;37610;51.790;21.590;2022-12-07T05:26:31;99258.64;;;0.90;89.47
51524;BME280;37610;51.790;21.590;2022-12-07T05:30:34;99251.30;;;0.91;89.45
51524;BME280;37610;51.790;21.590;2022-12-07T05:34:35;99256.94;;;0.91;89.61
51524;BME280;37610;51.790;21.590;2022-12-07T05:38:37;99252.88;;;0.92;89.31
51524;BME280;37610;51.790;21.590;2022-12-07T05:42:39;99257.06;;;0.92;89.40
51524;BME280;37610;51.790;21.590;2022-12-07T05:46:41;99258.46;;;0.92;89.57
51524;BME280;37610;51.790;21.590;2022-12-07T05:50:42;99257.71;;;0.92;89.31
51524;BME280;37610;51.790;21.590;2022-12-07T05:54:44;99262.17;;;0.93;89.25
51524;BME280;37610;51.790;21.590;2022-12-07T05:58:45;99264.84;;;0.92;89.85
51524;BME280;37610;51.790;21.590;2022-12-07T06:03:06;99267.14;;;0.92;90.04
51524;BME280;37610;51.790;21.590;2022-12-07T06:07:08;99259.94;;;0.89;90.18
51524;BME280;37610;51.790;21.590;2022-12-07T06:11:09;99259.75;;;0.90;90.09
51524;BME280;37610;51.790;21.590;2022-12-07T06:15:37;99261.27;;;0.87;90.29
51524;BME280;37610;51.790;21.590;2022-12-07T06:19:39;99260.77;;;0.87;90.23
51524;BME280;37610;51.790;21.590;2022-12-07T06:23:41;99263.36;;;0.85;89.99
51524;BME280;37610;51.790;21.590;2022-12-07T06:27:43;99266.20;;;0.85;90.20
51524;BME280;37610;51.790;21.590;2022-12-07T06:31:44;99265.48;;;0.82;90.20
51524;BME280;37610;51.790;21.590;2022-12-07T06:35:46;99258.52;;;0.77;90.47
51524;BME280;37610;51.790;21.590;2022-12-07T06:39:48;99264.35;;;0.73;90.66
51524;BME280;37610;51.790;21.590;2022-12-07T06:43:50;99269.20;;;0.67;90.90
51524;BME280;37610;51.790;21.590;2022-12-07T06:47:51;99268.88;;;0.65;91.40
51524;BME280;37610;51.790;21.590;2022-12-07T06:51:53;99263.96;;;0.61;91.39
51524;BME280;37610;51.790;21.590;2022-12-07T06:55:54;99264.77;;;0.58;91.34
51524;BME280;37610;51.790;21.590;2022-12-07T06:59:56;99267.64;;;0.54;92.25
51524;BME280;37610;51.790;21.590;2022-12-07T07:03:57;99265.02;;;0.51;93.06
51524;BME280;37610;51.790;21.590;2022-12-07T07:07:59;99266.91;;;0.53;92.87
51524;BME280;37610;51.790;21.590;2022-12-07T07:12:00;99263.61;;;0.55;92.99
51524;BME280;37610;51.790;21.590;2022-12-07T07:16:02;99262.77;;;0.55;92.98
51524;BME280;37610;51.790;21.590;2022-12-07T07:20:04;99261.86;;;0.51;93.27
51524;BME280;37610;51.790;21.590;2022-12-07T07:24:06;99255.85;;;0.50;93.06
51524;BME280;37610;51.790;21.590;2022-12-07T07:28:08;99255.09;;;0.54;93.07
51524;BME280;37610;51.790;21.590;2022-12-07T07:32:09;99253.35;;;0.55;92.99
51524;BME280;37610;51.790;21.590;2022-12-07T07:36:11;99257.64;;;0.57;93.05
51524;BME280;37610;51.790;21.590;2022-12-07T07:40:12;99254.98;;;0.56;92.94
51524;BME280;37610;51.790;21.590;2022-12-07T07:44:14;99256.63;;;0.57;92.89
51524;BME280;37610;51.790;21.590;2022-12-07T07:48:16;99256.69;;;0.58;92.96
51524;BME280;37610;51.790;21.590;2022-12-07T07:52:17;99255.52;;;0.56;92.96
51524;BME280;37610;51.790;21.590;2022-12-07T07:56:19;99260.30;;;0.55;93.92
51524;BME280;37610;51.790;21.590;2022-12-07T08:00:21;99258.00;;;0.55;94.62
51524;BME280;37610;51.790;21.590;2022-12-07T08:04:23;99258.83;;;0.57;94.96
51524;BME280;37610;51.790;21.590;2022-12-07T08:08:25;99263.92;;;0.60;95.09
51524;BME280;37610;51.790;21.590;2022-12-07T08:12:26;99264.39;;;0.57;94.79
51524;BME280;37610;51.790;21.590;2022-12-07T08:16:28;99266.83;;;0.57;94.72
51524;BME280;37610;51.790;21.590;2022-12-07T08:20:30;99266.39;;;0.59;94.81
51524;BME280;37610;51.790;21.590;2022-12-07T08:24:34;99267.86;;;0.59;94.55
51524;BME280;37610;51.790;21.590;2022-12-07T08:28:36;99268.98;;;0.58;94.44
51524;BME280;37610;51.790;21.590;2022-12-07T08:32:38;99270.43;;;0.55;94.49
51524;BME280;37610;51.790;21.590;2022-12-07T08:36:39;99272.02;;;0.57;94.39
51524;BME280;37610;51.790;21.590;2022-12-07T08:40:41;99276.66;;;0.57;94.06
51524;BME280;37610;51.790;21.590;2022-12-07T08:44:43;99274.95;;;0.55;94.37
51524;BME280;37610;51.790;21.590;2022-12-07T08:48:57;99274.49;;;0.55;95.21
51524;BME280;37610;51.790;21.590;2022-12-07T08:52:59;99274.36;;;0.55;95.79
51524;BME280;37610;51.790;21.590;2022-12-07T08:57:01;99272.70;;;0.57;96.17
51524;BME280;37610;51.790;21.590;2022-12-07T09:01:03;99274.45;;;0.60;96.11
51524;BME280;37610;51.790;21.590;2022-12-07T09:05:06;99271.52;;;0.58;95.92
51524;BME280;37610;51.790;21.590;2022-12-07T09:09:08;99273.61;;;0.60;95.87
51524;BME280;37610;51.790;21.590;2022-12-07T09:13:10;99271.17;;;0.60;95.58
51524;BME280;37610;51.790;21.590;2022-12-07T09:17:12;99271.39;;;0.63;95.21
51524;BME280;37610;51.790;21.590;2022-12-07T09:21:14;99266.52;;;0.64;94.96
51524;BME280;37610;51.790;21.590;2022-12-07T09:25:15;99264.65;;;0.70;94.55
51524;BME280;37610;51.790;21.590;2022-12-07T09:29:17;99266.27;;;0.71;94.55
51524;BME280;37610;51.790;21.590;2022-12-07T09:33:19;99262.39;;;0.75;94.26
51524;BME280;37610;51.790;21.590;2022-12-07T09:37:20;99260.70;;;0.76;94.23
51524;BME280;37610;51.790;21.590;2022-12-07T09:41:24;99263.16;;;0.78;94.40
51524;BME280;37610;51.790;21.590;2022-12-07T09:45:34;99258.29;;;0.78;94.90
51524;BME280;37610;51.790;21.590;2022-12-07T09:49:36;99261.91;;;0.82;96.01
51524;BME280;37610;51.790;21.590;2022-12-07T09:53:38;99262.75;;;0.84;96.37
51524;BME280;37610;51.790;21.590;2022-12-07T09:57:41;99255.11;;;0.88;96.86
51524;BME280;37610;51.790;21.590;2022-12-07T10:01:46;99256.05;;;0.90;96.99
51524;BME280;37610;51.790;21.590;2022-12-07T10:05:50;99249.71;;;0.96;97.67
51524;BME280;37610;51.790;21.590;2022-12-07T10:09:52;99249.39;;;1.03;99.02
51524;BME280;37610;51.790;21.590;2022-12-07T10:13:54;99249.41;;;1.12;99.90
51524;BME280;37610;51.790;21.590;2022-12-07T10:17:56;99247.56;;;1.21;99.97
51524;BME280;37610;51.790;21.590;2022-12-07T10:26:34;99258.34;;;1.30;99.21
51524;BME280;37610;51.790;21.590;2022-12-07T10:31:00;99257.68;;;1.36;96.29
51524;BME280;37610;51.790;21.590;2022-12-07T10:39:22;99252.20;;;1.50;94.03
51524;BME280;37610;51.790;21.590;2022-12-07T10:43:24;99258.06;;;1.55;93.24
51524;BME280;37610;51.790;21.590;2022-12-07T10:47:36;99255.59;;;1.65;93.08
51524;BME280;37610;51.790;21.590;2022-12-07T11:01:13;99257.70;;;1.77;92.41
51524;BME280;37610;51.790;21.590;2022-12-07T11:05:45;99255.20;;;1.75;92.03
51524;BME280;37610;51.790;21.590;2022-12-07T11:14:21;99247.70;;;1.78;92.12
51524;BME280;37610;51.790;21.590;2022-12-07T11:18:32;99250.08;;;1.76;91.78
51524;BME280;37610;51.790;21.590;2022-12-07T11:31:16;99239.02;;;1.77;91.48
51524;BME280;37610;51.790;21.590;2022-12-07T11:39:55;99240.86;;;1.73;91.40
51524;BME280;37610;51.790;21.590;2022-12-07T11:48:22;99241.71;;;1.68;91.08
51524;BME280;37610;51.790;21.590;2022-12-07T11:52:58;99240.05;;;1.65;91.22
51524;BME280;37610;51.790;21.590;2022-12-07T11:57:04;99238.84;;;1.62;91.27
51524;BME280;37610;51.790;21.590;2022-12-07T12:05:21;99243.33;;;1.66;91.47
51524;BME280;37610;51.790;21.590;2022-12-07T12:09:41;99240.16;;;1.71;91.18
51524;BME280;37610;51.790;21.590;2022-12-07T12:18:42;99236.44;;;1.75;90.90
51524;BME280;37610;51.790;21.590;2022-12-07T12:22:58;99233.16;;;1.78;91.13
51524;BME280;37610;51.790;21.590;2022-12-07T12:27:21;99230.80;;;1.80;90.88
51524;BME280;37610;51.790;21.590;2022-12-07T12:35:36;99229.77;;;1.83;90.52
51524;BME280;37610;51.790;21.590;2022-12-07T12:39:38;99229.45;;;1.84;90.29
51524;BME280;37610;51.790;21.590;2022-12-07T12:43:51;99226.69;;;1.80;90.14
51524;BME280;37610;51.790;21.590;2022-12-07T12:51:55;99217.70;;;1.73;90.24
51524;BME280;37610;51.790;21.590;2022-12-07T12:56:28;99216.17;;;1.73;90.41
51524;BME280;37610;51.790;21.590;2022-12-07T13:00:31;99215.09;;;1.70;90.26
51524;BME280;37610;51.790;21.590;2022-12-07T13:05:00;99213.52;;;1.66;90.21
51524;BME280;37610;51.790;21.590;2022-12-07T13:09:00;99210.10;;;1.63;90.10
51524;BME280;37610;51.790;21.590;2022-12-07T13:25:45;99212.50;;;1.50;90.21
51524;BME280;37610;51.790;21.590;2022-12-07T13:29:49;99217.66;;;1.51;90.08
51524;BME280;37610;51.790;21.590;2022-12-07T13:33:50;99219.46;;;1.49;90.04
51524;BME280;37610;51.790;21.590;2022-12-07T13:37:52;99213.90;;;1.44;92.63
51524;BME280;37610;51.790;21.590;2022-12-07T13:41:57;99209.76;;;1.41;93.64
51524;BME280;37610;51.790;21.590;2022-12-07T13:45:59;99213.52;;;1.40;93.07
51524;BME280;37610;51.790;21.590;2022-12-07T13:50:30;99210.29;;;1.41;91.29
51524;BME280;37610;51.790;21.590;2022-12-07T13:54:32;99210.23;;;1.43;90.78
51524;BME280;37610;51.790;21.590;2022-12-07T13:58:34;99215.48;;;1.42;90.32
51524;BME280;37610;51.790;21.590;2022-12-07T14:02:35;99213.50;;;1.42;90.22
51524;BME280;37610;51.790;21.590;2022-12-07T14:06:50;99211.84;;;1.41;90.19
51524;BME280;37610;51.790;21.590;2022-12-07T14:14:54;99212.92;;;1.39;90.08
51524;BME280;37610;51.790;21.590;2022-12-07T14:18:58;99218.58;;;1.40;90.12
51524;BME280;37610;51.790;21.590;2022-12-07T14:23:01;99216.05;;;1.39;89.93
51524;BME280;37610;51.790;21.590;2022-12-07T14:27:23;99218.05;;;1.40;89.94
51524;BME280;37610;51.790;21.590;2022-12-07T14:31:27;99217.42;;;1.38;89.96
51524;BME280;37610;51.790;21.590;2022-12-07T14:35:29;99216.52;;;1.36;89.93
51524;BME280;37610;51.790;21.590;2022-12-07T14:39:31;99221.65;;;1.37;90.05
51524;BME280;37610;51.790;21.590;2022-12-07T14:43:32;99215.23;;;1.34;89.76
51524;BME280;37610;51.790;21.590;2022-12-07T14:47:34;99214.56;;;1.32;89.71
51524;BME280;37610;51.790;21.590;2022-12-07T14:51:37;99220.98;;;1.29;89.77
51524;BME280;37610;51.790;21.590;2022-12-07T14:55:40;99228.75;;;1.28;89.40
51524;BME280;37610;51.790;21.590;2022-12-07T14:59:42;99228.99;;;1.27;89.27
51524;BME280;37610;51.790;21.590;2022-12-07T15:03:43;99226.80;;;1.25;89.14
51524;BME280;37610;51.790;21.590;2022-12-07T15:07:46;99232.02;;;1.25;89.16
51524;BME280;37610;51.790;21.590;2022-12-07T15:11:48;99230.98;;;1.25;89.04
51524;BME280;37610;51.790;21.590;2022-12-07T15:15:51;99229.46;;;1.25;88.93
51524;BME280;37610;51.790;21.590;2022-12-07T15:19:53;99221.73;;;1.24;88.92
51524;BME280;37610;51.790;21.590;2022-12-07T15:23:54;99223.38;;;1.21;88.91
51524;BME280;37610;51.790;21.590;2022-12-07T15:27:56;99229.55;;;1.18;88.99
51524;BME280;37610;51.790;21.590;2022-12-07T15:31:57;99225.89;;;1.14;88.99
51524;BME280;37610;51.790;21.590;2022-12-07T15:35:59;99219.41;;;1.10;89.07
51524;BME280;37610;51.790;21.590;2022-12-07T15:40:00;99219.09;;;1.06;89.26
51524;BME280;37610;51.790;21.590;2022-12-07T15:44:02;99218.71;;;1.05;89.44
51524;BME280;37610;51.790;21.590;2022-12-07T15:48:22;99217.65;;;1.03;89.52
51524;BME280;37610;51.790;21.590;2022-12-07T15:52:24;99214.30;;;1.02;89.44
51524;BME280;37610;51.790;21.590;2022-12-07T15:56:25;99219.11;;;1.02;89.48
51524;BME280;37610;51.790;21.590;2022-12-07T16:00:27;99222.33;;;1.02;89.59
51524;BME280;37610;51.790;21.590;2022-12-07T16:04:28;99219.64;;;1.01;89.70
51524;BME280;37610;51.790;21.590;2022-12-07T16:08:30;99215.55;;;1.02;89.72
51524;BME280;37610;51.790;21.590;2022-12-07T16:12:32;99214.69;;;1.04;89.80
51524;BME280;37610;51.790;21.590;2022-12-07T16:16:33;99215.63;;;1.03;89.69
51524;BME280;37610;51.790;21.590;2022-12-07T16:20:35;99213.65;;;1.04;89.68
51524;BME280;37610;51.790;21.590;2022-12-07T16:24:37;99211.10;;;1.06;89.86
51524;BME280;37610;51.790;21.590;2022-12-07T16:28:38;99202.61;;;1.08;89.86
51524;BME280;37610;51.790;21.590;2022-12-07T16:32:40;99211.90;;;1.08;89.84
51524;BME280;37610;51.790;21.590;2022-12-07T16:36:41;99213.14;;;1.08;89.86
51524;BME280;37610;51.790;21.590;2022-12-07T16:40:43;99212.23;;;1.09;89.89
51524;BME280;37610;51.790;21.590;2022-12-07T16:44:45;99212.89;;;1.07;89.77
51524;BME280;37610;51.790;21.590;2022-12-07T16:48:47;99212.79;;;1.05;89.83
51524;BME280;37610;51.790;21.590;2022-12-07T16:52:48;99213.02;;;1.06;89.78
51524;BME280;37610;51.790;21.590;2022-12-07T16:56:50;99205.80;;;1.07;89.74
51524;BME280;37610;51.790;21.590;2022-12-07T17:00:52;99205.93;;;1.06;89.68
51524;BME280;37610;51.790;21.590;2022-12-07T17:04:53;99203.02;;;0.99;89.56
51524;BME280;37610;51.790;21.590;2022-12-07T17:08:56;99204.23;;;0.89;89.41
51524;BME280;37610;51.790;21.590;2022-12-07T17:12:57;99208.33;;;0.80;89.81
51524;BME280;37610;51.790;21.590;2022-12-07T17:16:59;99207.21;;;0.74;89.64
51524;BME280;37610;51.790;21.590;2022-12-07T17:21:05;99204.70;;;0.67;89.56
51524;BME280;37610;51.790;21.590;2022-12-07T17:25:07;99205.52;;;0.59;89.68
51524;BME280;37610;51.790;21.590;2022-12-07T17:29:11;99198.15;;;0.55;89.89
51524;BME280;37610;51.790;21.590;2022-12-07T17:33:13;99202.79;;;0.57;90.01
51524;BME280;37610;51.790;21.590;2022-12-07T17:37:15;99202.31;;;0.61;90.15
51524;BME280;37610;51.790;21.590;2022-12-07T17:41:20;99206.61;;;0.67;90.07
51524;BME280;37610;51.790;21.590;2022-12-07T17:45:40;99212.21;;;0.73;89.90
51524;BME280;37610;51.790;21.590;2022-12-07T17:49:42;99212.52;;;0.78;89.68
51524;BME280;37610;51.790;21.590;2022-12-07T17:53:43;99218.70;;;0.85;89.62
51524;BME280;37610;51.790;21.590;2022-12-07T17:57:45;99216.28;;;0.89;89.50
51524;BME280;37610;51.790;21.590;2022-12-07T18:01:46;99220.16;;;0.93;89.29
51524;BME280;37610;51.790;21.590;2022-12-07T18:05:48;99219.74;;;0.94;89.17
51524;BME280;37610;51.790;21.590;2022-12-07T18:09:49;99220.11;;;0.95;89.16
51524;BME280;37610;51.790;21.590;2022-12-07T18:13:51;99223.06;;;0.95;89.19
51524;BME280;37610;51.790;21.590;2022-12-07T18:17:53;99215.11;;;0.97;88.97
51524;BME280;37610;51.790;21.590;2022-12-07T18:21:54;99215.89;;;0.96;88.99
51524;BME280;37610;51.790;21.590;2022-12-07T18:25:56;99215.96;;;0.95;88.96
51524;BME280;37610;51.790;21.590;2022-12-07T18:29:57;99214.92;;;0.97;88.86
51524;BME280;37610;51.790;21.590;2022-12-07T18:34:02;99216.05;;;0.98;88.85
51524;BME280;37610;51.790;21.590;2022-12-07T18:38:05;99216.82;;;1.00;88.61
51524;BME280;37610;51.790;21.590;2022-12-07T18:42:06;99212.39;;;1.01;88.64
51524;BME280;37610;51.790;21.590;2022-12-07T18:46:10;99211.50;;;1.04;88.51
51524;BME280;37610;51.790;21.590;2022-12-07T18:50:12;99219.23;;;1.07;88.43
51524;BME280;37610;51.790;21.590;2022-12-07T18:54:13;99217.17;;;1.08;88.15
51524;BME280;37610;51.790;21.590;2022-12-07T18:58:15;99219.20;;;1.08;88.06
51524;BME280;37610;51.790;21.590;2022-12-07T19:02:17;99219.16;;;1.12;88.04
51524;BME280;37610;51.790;21.590;2022-12-07T19:06:19;99222.92;;;1.14;87.77
51524;BME280;37610;51.790;21.590;2022-12-07T19:10:21;99219.11;;;1.15;87.58
51524;BME280;37610;51.790;21.590;2022-12-07T19:14:31;99225.70;;;1.18;87.27
51524;BME280;37610;51.790;21.590;2022-12-07T19:18:33;99226.28;;;1.19;87.04
51524;BME280;37610;51.790;21.590;2022-12-07T19:22:35;99228.89;;;1.21;86.94
51524;BME280;37610;51.790;21.590;2022-12-07T19:26:37;99226.70;;;1.23;87.07
51524;BME280;37610;51.790;21.590;2022-12-07T19:30:38;99226.51;;;1.25;87.02
51524;BME280;37610;51.790;21.590;2022-12-07T19:34:42;99231.30;;;1.27;86.94
51524;BME280;37610;51.790;21.590;2022-12-07T19:38:44;99228.33;;;1.29;86.79
51524;BME280;37610;51.790;21.590;2022-12-07T19:42:46;99232.67;;;1.27;86.19
51524;BME280;37610;51.790;21.590;2022-12-07T19:46:48;99228.09;;;1.25;86.08
51524;BME280;37610;51.790;21.590;2022-12-07T19:50:51;99233.45;;;1.22;85.97
51524;BME280;37610;51.790;21.590;2022-12-07T19:54:52;99234.85;;;1.16;85.76
51524;BME280;37610;51.790;21.590;2022-12-07T19:58:58;99235.81;;;1.15;85.91
51524;BME280;37610;51.790;21.590;2022-12-07T20:03:01;99251.46;;;1.14;85.81
51524;BME280;37610;51.790;21.590;2022-12-07T20:07:02;99250.45;;;1.14;86.03
51524;BME280;37610;51.790;21.590;2022-12-07T20:11:05;99254.23;;;1.10;85.82
51524;BME280;37610;51.790;21.590;2022-12-07T20:15:27;99258.84;;;1.06;85.83
51524;BME280;37610;51.790;21.590;2022-12-07T20:19:28;99271.69;;;1.00;85.63
51524;BME280;37610;51.790;21.590;2022-12-07T20:23:30;99280.12;;;0.98;85.67
51524;BME280;37610;51.790;21.590;2022-12-07T20:27:31;99287.64;;;0.94;85.36
51524;BME280;37610;51.790;21.590;2022-12-07T20:31:33;99302.11;;;0.93;85.16
51524;BME280;37610;51.790;21.590;2022-12-07T20:35:35;99303.08;;;0.99;85.20
51524;BME280;37610;51.790;21.590;2022-12-07T20:39:36;99309.76;;;0.99;84.85
51524;BME280;37610;51.790;21.590;2022-12-07T20:43:38;99307.00;;;1.02;84.92
51524;BME280;37610;51.790;21.590;2022-12-07T20:47:39;99312.73;;;1.02;84.80
51524;BME280;37610;51.790;21.590;2022-12-07T20:51:41;99313.79;;;0.96;84.58
51524;BME280;37610;51.790;21.590;2022-12-07T20:55:43;99320.60;;;0.89;84.51
51524;BME280;37610;51.790;21.590;2022-12-07T20:59:45;99324.33;;;0.79;83.82
51524;BME280;37610;51.790;21.590;2022-12-07T21:03:46;99322.09;;;0.69;83.18
51524;BME280;37610;51.790;21.590;2022-12-07T21:07:48;99324.33;;;0.60;83.52
51524;BME280;37610;51.790;21.590;2022-12-07T21:11:50;99329.04;;;0.50;82.93
51524;BME280;37610;51.790;21.590;2022-12-07T21:15:51;99326.13;;;0.40;83.11
51524;BME280;37610;51.790;21.590;2022-12-07T21:19:53;99334.52;;;0.33;83.74
51524;BME280;37610;51.790;21.590;2022-12-07T21:23:54;99340.02;;;0.25;84.31
51524;BME280;37610;51.790;21.590;2022-12-07T21:27:56;99345.64;;;0.18;84.53
51524;BME280;37610;51.790;21.590;2022-12-07T21:31:59;99347.90;;;0.10;84.49
51524;BME280;37610;51.790;21.590;2022-12-07T21:36:02;99349.65;;;0.05;84.29
51524;BME280;37610;51.790;21.590;2022-12-07T21:40:04;99343.73;;;-0.02;84.35
51524;BME280;37610;51.790;21.590;2022-12-07T21:44:07;99348.52;;;-0.08;84.43
51524;BME280;37610;51.790;21.590;2022-12-07T21:48:10;99343.84;;;-0.13;84.63
51524;BME280;37610;51.790;21.590;2022-12-07T21:52:12;99342.80;;;-0.19;84.62
51524;BME280;37610;51.790;21.590;2022-12-07T21:56:16;99334.70;;;-0.24;84.61
51524;BME280;37610;51.790;21.590;2022-12-07T22:00:18;99333.31;;;-0.28;84.78
51524;BME280;37610;51.790;21.590;2022-12-07T22:04:23;99335.50;;;-0.30;84.93
51524;BME280;37610;51.790;21.590;2022-12-07T22:08:25;99339.78;;;-0.33;84.91
51524;BME280;37610;51.790;21.590;2022-12-07T22:12:27;99338.09;;;-0.34;84.94
51524;BME280;37610;51.790;21.590;2022-12-07T22:16:29;99340.94;;;-0.37;85.18
51524;BME280;37610;51.790;21.590;2022-12-07T22:20:30;99343.10;;;-0.40;85.02
51524;BME280;37610;51.790;21.590;2022-12-07T22:24:32;99345.66;;;-0.41;85.01
51524;BME280;37610;51.790;21.590;2022-12-07T22:28:36;99354.05;;;-0.46;85.42
51524;BME280;37610;51.790;21.590;2022-12-07T22:32:39;99352.38;;;-0.48;85.49
51524;BME280;37610;51.790;21.590;2022-12-07T22:36:40;99354.98;;;-0.48;85.74
51524;BME280;37610;51.790;21.590;2022-12-07T22:40:42;99355.75;;;-0.49;85.64
51524;BME280;37610;51.790;21.590;2022-12-07T22:44:44;99364.08;;;-0.51;85.67
51524;BME280;37610;51.790;21.590;2022-12-07T22:49:03;99361.83;;;-0.54;85.41
51524;BME280;37610;51.790;21.590;2022-12-07T22:53:23;99357.42;;;-0.57;85.40
51524;BME280;37610;51.790;21.590;2022-12-07T22:57:42;99356.59;;;-0.59;85.57
51524;BME280;37610;51.790;21.590;2022-12-07T23:02:01;99360.23;;;-0.61;85.54